sensor_id;sensor_type;location;lat;lon;timestamp;P1;durP1;ratioP1;P2;durP2;ratioP2
12369;SDS011;6249;52.128;9.986;2023-04-15T00:02:32;11.57;;;7.07;;
12369;SDS011;6249;52.128;9.986;2023-04-15T00:05:53;11.97;;;6.63;;
12369;SDS011;6249;52.128;9.986;2023-04-15T00:09:13;11.13;;;6.30;;
12369;SDS011;6249;52.128;9.986;2023-04-15T00:12:34;10.87;;;6.30;;
12369;SDS011;6249;52.128;9.986;2023-04-15T00:15:54;11.37;;;6.50;;
12369;SDS011;6249;52.128;9.986;2023-04-15T00:19:15;9.70;;;6.30;;
12369;SDS011;6249;52.128;9.986;2023-04-15T00:22:38;11.40;;;6.57;;
12369;SDS011;6249;52.128;9.986;2023-04-15T00:26:01;9.13;;;6.53;;
12369;SDS011;6249;52.128;9.986;2023-04-15T00:29:24;10.37;;;6.50;;
12369;SDS011;6249;52.128;9.986;2023-04-15T00:32:45;11.57;;;6.77;;
12369;SDS011;6249;52.128;9.986;2023-04-15T00:36:08;11.40;;;6.63;;
12369;SDS011;6249;52.128;9.986;2023-04-15T00:39:30;11.10;;;6.60;;
12369;SDS011;6249;52.128;9.986;2023-04-15T00:42:50;9.77;;;6.07;;
12369;SDS011;6249;52.128;9.986;2023-04-15T00:46:13;14.40;;;6.80;;
12369;SDS011;6249;52.128;9.986;2023-04-15T00:49:35;14.47;;;7.40;;
12369;SDS011;6249;52.128;9.986;2023-04-15T00:52:55;12.57;;;7.67;;
12369;SDS011;6249;52.128;9.986;2023-04-15T00:56:16;11.43;;;6.63;;
12369;SDS011;6249;52.128;9.986;2023-04-15T00:59:39;13.00;;;7.07;;
12369;SDS011;6249;52.128;9.986;2023-04-15T01:03:00;10.47;;;6.50;;
12369;SDS011;6249;52.128;9.986;2023-04-15T01:06:20;9.80;;;6.37;;
12369;SDS011;6249;52.128;9.986;2023-04-15T01:09:41;12.20;;;6.97;;
12369;SDS011;6249;52.128;9.986;2023-04-15T01:13:02;13.50;;;8.10;;
12369;SDS011;6249;52.128;9.986;2023-04-15T01:16:23;11.70;;;6.53;;
12369;SDS011;6249;52.128;9.986;2023-04-15T01:19:43;14.07;;;6.70;;
12369;SDS011;6249;52.128;9.986;2023-04-15T01:23:06;13.33;;;7.73;;
12369;SDS011;6249;52.128;9.986;2023-04-15T01:26:27;11.40;;;6.67;;
12369;SDS011;6249;52.128;9.986;2023-04-15T01:29:51;11.43;;;7.40;;
12369;SDS011;6249;52.128;9.986;2023-04-15T01:33:13;12.50;;;6.80;;
12369;SDS011;6249;52.128;9.986;2023-04-15T01:36:39;12.80;;;7.37;;
12369;SDS011;6249;52.128;9.986;2023-04-15T01:40:04;13.77;;;8.00;;
12369;SDS011;6249;52.128;9.986;2023-04-15T01:43:27;11.53;;;7.47;;
12369;SDS011;6249;52.128;9.986;2023-04-15T01:46:57;11.73;;;6.70;;
12369;SDS011;6249;52.128;9.986;2023-04-15T01:50:24;16.30;;;8.30;;
12369;SDS011;6249;52.128;9.986;2023-04-15T01:53:46;12.60;;;6.87;;
12369;SDS011;6249;52.128;9.986;2023-04-15T01:57:06;11.80;;;7.83;;
12369;SDS011;6249;52.128;9.986;2023-04-15T02:00:29;11.00;;;7.20;;
12369;SDS011;6249;52.128;9.986;2023-04-15T02:03:51;12.67;;;7.57;;
12369;SDS011;6249;52.128;9.986;2023-04-15T02:07:12;15.87;;;8.10;;
12369;SDS011;6249;52.128;9.986;2023-04-15T02:10:32;10.57;;;6.80;;
12369;SDS011;6249;52.128;9.986;2023-04-15T02:13:53;15.93;;;7.50;;
12369;SDS011;6249;52.128;9.986;2023-04-15T02:17:13;17.37;;;8.20;;
12369;SDS011;6249;52.128;9.986;2023-04-15T02:20:34;14.67;;;8.63;;
12369;SDS011;6249;52.128;9.986;2023-04-15T02:23:55;17.20;;;9.20;;
12369;SDS011;6249;52.128;9.986;2023-04-15T02:27:16;15.20;;;8.50;;
12369;SDS011;6249;52.128;9.986;2023-04-15T02:30:39;20.33;;;8.53;;
12369;SDS011;6249;52.128;9.986;2023-04-15T02:34:00;15.43;;;8.70;;
12369;SDS011;6249;52.128;9.986;2023-04-15T02:37:23;15.07;;;8.90;;
12369;SDS011;6249;52.128;9.986;2023-04-15T02:40:46;16.23;;;9.30;;
12369;SDS011;6249;52.128;9.986;2023-04-15T02:44:08;14.50;;;9.43;;
12369;SDS011;6249;52.128;9.986;2023-04-15T02:47:29;17.80;;;9.83;;
12369;SDS011;6249;52.128;9.986;2023-04-15T02:50:49;17.83;;;10.20;;
12369;SDS011;6249;52.128;9.986;2023-04-15T02:54:10;19.37;;;10.97;;
12369;SDS011;6249;52.128;9.986;2023-04-15T02:57:31;20.40;;;11.20;;
12369;SDS011;6249;52.128;9.986;2023-04-15T03:00:54;22.53;;;12.63;;
12369;SDS011;6249;52.128;9.986;2023-04-15T03:04:17;24.27;;;11.93;;
12369;SDS011;6249;52.128;9.986;2023-04-15T03:07:40;26.70;;;12.37;;
12369;SDS011;6249;52.128;9.986;2023-04-15T03:11:00;22.37;;;12.90;;
12369;SDS011;6249;52.128;9.986;2023-04-15T03:14:21;26.90;;;13.70;;
12369;SDS011;6249;52.128;9.986;2023-04-15T03:17:42;28.40;;;13.43;;
12369;SDS011;6249;52.128;9.986;2023-04-15T03:21:02;23.47;;;13.57;;
12369;SDS011;6249;52.128;9.986;2023-04-15T03:24:23;25.50;;;13.57;;
12369;SDS011;6249;52.128;9.986;2023-04-15T03:27:44;32.60;;;15.00;;
12369;SDS011;6249;52.128;9.986;2023-04-15T03:31:05;29.57;;;14.63;;
12369;SDS011;6249;52.128;9.986;2023-04-15T03:34:25;27.20;;;14.77;;
12369;SDS011;6249;52.128;9.986;2023-04-15T03:37:50;23.67;;;13.90;;
12369;SDS011;6249;52.128;9.986;2023-04-15T03:41:11;26.60;;;14.40;;
12369;SDS011;6249;52.128;9.986;2023-04-15T03:44:34;24.80;;;14.53;;
12369;SDS011;6249;52.128;9.986;2023-04-15T03:47:57;28.37;;;16.00;;
12369;SDS011;6249;52.128;9.986;2023-04-15T03:51:18;30.80;;;15.90;;
12369;SDS011;6249;52.128;9.986;2023-04-15T03:54:38;27.50;;;15.73;;
12369;SDS011;6249;52.128;9.986;2023-04-15T03:57:59;29.77;;;15.30;;
12369;SDS011;6249;52.128;9.986;2023-04-15T04:01:21;28.93;;;15.77;;
12369;SDS011;6249;52.128;9.986;2023-04-15T04:04:42;26.97;;;15.93;;
12369;SDS011;6249;52.128;9.986;2023-04-15T04:08:05;27.97;;;15.10;;
12369;SDS011;6249;52.128;9.986;2023-04-15T04:11:28;29.00;;;16.40;;
12369;SDS011;6249;52.128;9.986;2023-04-15T04:14:49;33.43;;;18.20;;
12369;SDS011;6249;52.128;9.986;2023-04-15T04:18:10;28.73;;;16.83;;
12369;SDS011;6249;52.128;9.986;2023-04-15T04:21:31;31.50;;;17.00;;
12369;SDS011;6249;52.128;9.986;2023-04-15T04:24:55;33.97;;;18.57;;
12369;SDS011;6249;52.128;9.986;2023-04-15T04:28:18;33.63;;;17.73;;
12369;SDS011;6249;52.128;9.986;2023-04-15T04:31:38;35.83;;;17.97;;
12369;SDS011;6249;52.128;9.986;2023-04-15T04:34:59;32.43;;;17.37;;
12369;SDS011;6249;52.128;9.986;2023-04-15T04:38:20;39.03;;;19.03;;
12369;SDS011;6249;52.128;9.986;2023-04-15T04:41:40;40.73;;;21.50;;
12369;SDS011;6249;52.128;9.986;2023-04-15T04:45:03;39.37;;;20.47;;
12369;SDS011;6249;52.128;9.986;2023-04-15T04:48:24;47.60;;;22.13;;
12369;SDS011;6249;52.128;9.986;2023-04-15T04:51:45;41.00;;;21.80;;
12369;SDS011;6249;52.128;9.986;2023-04-15T04:55:08;44.23;;;22.63;;
12369;SDS011;6249;52.128;9.986;2023-04-15T04:58:28;42.73;;;23.90;;
12369;SDS011;6249;52.128;9.986;2023-04-15T05:01:49;47.27;;;23.50;;
12369;SDS011;6249;52.128;9.986;2023-04-15T05:05:10;39.67;;;22.03;;
12369;SDS011;6249;52.128;9.986;2023-04-15T05:08:35;43.13;;;20.77;;
12369;SDS011;6249;52.128;9.986;2023-04-15T05:11:56;45.43;;;21.93;;
12369;SDS011;6249;52.128;9.986;2023-04-15T05:15:17;49.20;;;24.70;;
12369;SDS011;6249;52.128;9.986;2023-04-15T05:18:38;49.63;;;24.57;;
12369;SDS011;6249;52.128;9.986;2023-04-15T05:21:58;57.70;;;27.57;;
12369;SDS011;6249;52.128;9.986;2023-04-15T05:25:19;54.00;;;28.80;;
12369;SDS011;6249;52.128;9.986;2023-04-15T05:28:40;60.67;;;28.97;;
12369;SDS011;6249;52.128;9.986;2023-04-15T05:32:05;56.83;;;29.13;;
12369;SDS011;6249;52.128;9.986;2023-04-15T05:35:28;51.83;;;26.20;;
12369;SDS011;6249;52.128;9.986;2023-04-15T05:38:51;54.50;;;28.63;;
12369;SDS011;6249;52.128;9.986;2023-04-15T05:42:14;55.80;;;28.47;;
12369;SDS011;6249;52.128;9.986;2023-04-15T05:45:37;57.30;;;28.20;;
12369;SDS011;6249;52.128;9.986;2023-04-15T05:48:58;53.30;;;27.20;;
12369;SDS011;6249;52.128;9.986;2023-04-15T05:52:21;56.47;;;29.30;;
12369;SDS011;6249;52.128;9.986;2023-04-15T05:55:41;56.47;;;27.70;;
12369;SDS011;6249;52.128;9.986;2023-04-15T05:59:02;57.47;;;28.73;;
12369;SDS011;6249;52.128;9.986;2023-04-15T06:02:22;47.50;;;24.50;;
12369;SDS011;6249;52.128;9.986;2023-04-15T06:05:43;49.40;;;26.03;;
12369;SDS011;6249;52.128;9.986;2023-04-15T06:09:04;50.97;;;25.90;;
12369;SDS011;6249;52.128;9.986;2023-04-15T06:12:24;44.53;;;24.60;;
12369;SDS011;6249;52.128;9.986;2023-04-15T06:15:45;39.77;;;22.20;;
12369;SDS011;6249;52.128;9.986;2023-04-15T06:19:08;48.43;;;23.80;;
12369;SDS011;6249;52.128;9.986;2023-04-15T06:22:31;46.33;;;23.10;;
12369;SDS011;6249;52.128;9.986;2023-04-15T06:25:51;39.80;;;21.53;;
12369;SDS011;6249;52.128;9.986;2023-04-15T06:29:12;43.27;;;23.13;;
12369;SDS011;6249;52.128;9.986;2023-04-15T06:32:33;37.87;;;20.90;;
12369;SDS011;6249;52.128;9.986;2023-04-15T06:35:53;41.50;;;21.77;;
12369;SDS011;6249;52.128;9.986;2023-04-15T06:39:16;39.67;;;21.20;;
12369;SDS011;6249;52.128;9.986;2023-04-15T06:42:39;35.83;;;18.80;;
12369;SDS011;6249;52.128;9.986;2023-04-15T06:46:00;35.63;;;19.57;;
12369;SDS011;6249;52.128;9.986;2023-04-15T06:49:21;41.10;;;19.70;;
12369;SDS011;6249;52.128;9.986;2023-04-15T06:52:42;35.50;;;19.27;;
12369;SDS011;6249;52.128;9.986;2023-04-15T06:56:02;35.67;;;18.43;;
12369;SDS011;6249;52.128;9.986;2023-04-15T06:59:23;36.67;;;18.10;;
12369;SDS011;6249;52.128;9.986;2023-04-15T07:02:46;36.03;;;17.70;;
12369;SDS011;6249;52.128;9.986;2023-04-15T07:06:07;41.93;;;20.10;;
12369;SDS011;6249;52.128;9.986;2023-04-15T07:09:28;33.50;;;16.80;;
12369;SDS011;6249;52.128;9.986;2023-04-15T07:12:49;29.73;;;16.60;;
12369;SDS011;6249;52.128;9.986;2023-04-15T07:16:14;29.93;;;16.00;;
12369;SDS011;6249;52.128;9.986;2023-04-15T07:19:35;30.40;;;17.70;;
12369;SDS011;6249;52.128;9.986;2023-04-15T07:22:58;30.87;;;17.80;;
12369;SDS011;6249;52.128;9.986;2023-04-15T07:26:18;24.77;;;14.63;;
12369;SDS011;6249;52.128;9.986;2023-04-15T07:29:41;26.00;;;15.63;;
12369;SDS011;6249;52.128;9.986;2023-04-15T07:33:02;23.07;;;14.83;;
12369;SDS011;6249;52.128;9.986;2023-04-15T07:36:25;24.17;;;14.60;;
12369;SDS011;6249;52.128;9.986;2023-04-15T07:39:48;24.07;;;14.70;;
12369;SDS011;6249;52.128;9.986;2023-04-15T07:43:08;31.53;;;15.83;;
12369;SDS011;6249;52.128;9.986;2023-04-15T07:46:32;26.67;;;15.97;;
12369;SDS011;6249;52.128;9.986;2023-04-15T07:49:53;26.97;;;15.03;;
12369;SDS011;6249;52.128;9.986;2023-04-15T07:53:13;25.40;;;14.40;;
12369;SDS011;6249;52.128;9.986;2023-04-15T07:56:36;28.57;;;15.37;;
12369;SDS011;6249;52.128;9.986;2023-04-15T07:59:56;24.87;;;14.87;;
12369;SDS011;6249;52.128;9.986;2023-04-15T08:03:17;27.53;;;15.70;;
12369;SDS011;6249;52.128;9.986;2023-04-15T08:06:38;23.60;;;14.10;;
12369;SDS011;6249;52.128;9.986;2023-04-15T08:09:58;24.90;;;15.40;;
12369;SDS011;6249;52.128;9.986;2023-04-15T08:13:24;25.83;;;14.70;;
12369;SDS011;6249;52.128;9.986;2023-04-15T08:16:46;23.43;;;14.50;;
12369;SDS011;6249;52.128;9.986;2023-04-15T08:20:07;20.10;;;12.90;;
12369;SDS011;6249;52.128;9.986;2023-04-15T08:23:28;22.53;;;13.50;;
12369;SDS011;6249;52.128;9.986;2023-04-15T08:26:49;30.17;;;13.97;;
12369;SDS011;6249;52.128;9.986;2023-04-15T08:30:12;22.00;;;13.53;;
12369;SDS011;6249;52.128;9.986;2023-04-15T08:33:35;21.90;;;12.50;;
12369;SDS011;6249;52.128;9.986;2023-04-15T08:36:56;19.83;;;11.80;;
12369;SDS011;6249;52.128;9.986;2023-04-15T08:40:19;20.80;;;12.00;;
12369;SDS011;6249;52.128;9.986;2023-04-15T08:43:53;21.00;;;11.90;;
12369;SDS011;6249;52.128;9.986;2023-04-15T08:47:17;16.07;;;10.40;;
12369;SDS011;6249;52.128;9.986;2023-04-15T08:50:43;20.77;;;11.67;;
12369;SDS011;6249;52.128;9.986;2023-04-15T08:54:08;17.60;;;10.10;;
12369;SDS011;6249;52.128;9.986;2023-04-15T08:57:29;19.50;;;10.73;;
12369;SDS011;6249;52.128;9.986;2023-04-15T09:00:51;14.20;;;9.77;;
12369;SDS011;6249;52.128;9.986;2023-04-15T09:04:11;13.93;;;9.17;;
12369;SDS011;6249;52.128;9.986;2023-04-15T09:07:33;14.40;;;9.27;;
12369;SDS011;6249;52.128;9.986;2023-04-15T09:10:55;16.53;;;9.17;;
12369;SDS011;6249;52.128;9.986;2023-04-15T09:14:18;14.17;;;9.50;;
12369;SDS011;6249;52.128;9.986;2023-04-15T09:17:42;11.67;;;8.03;;
12369;SDS011;6249;52.128;9.986;2023-04-15T09:21:07;14.00;;;7.17;;
12369;SDS011;6249;52.128;9.986;2023-04-15T09:24:36;12.33;;;8.00;;
12369;SDS011;6249;52.128;9.986;2023-04-15T09:28:03;12.90;;;7.93;;
12369;SDS011;6249;52.128;9.986;2023-04-15T09:31:28;13.50;;;7.50;;
12369;SDS011;6249;52.128;9.986;2023-04-15T09:34:50;14.17;;;8.60;;
12369;SDS011;6249;52.128;9.986;2023-04-15T09:38:13;13.20;;;8.00;;
12369;SDS011;6249;52.128;9.986;2023-04-15T09:41:38;11.27;;;7.23;;
12369;SDS011;6249;52.128;9.986;2023-04-15T09:45:12;11.57;;;7.70;;
12369;SDS011;6249;52.128;9.986;2023-04-15T09:48:32;14.13;;;7.47;;
12369;SDS011;6249;52.128;9.986;2023-04-15T09:51:59;10.90;;;6.90;;
12369;SDS011;6249;52.128;9.986;2023-04-15T09:55:20;11.73;;;7.43;;
12369;SDS011;6249;52.128;9.986;2023-04-15T09:58:47;15.07;;;7.97;;
12369;SDS011;6249;52.128;9.986;2023-04-15T10:02:17;13.77;;;8.50;;
12369;SDS011;6249;52.128;9.986;2023-04-15T10:05:39;13.00;;;8.40;;
12369;SDS011;6249;52.128;9.986;2023-04-15T10:09:00;13.13;;;7.90;;
12369;SDS011;6249;52.128;9.986;2023-04-15T10:12:25;17.93;;;9.93;;
12369;SDS011;6249;52.128;9.986;2023-04-15T10:15:49;20.77;;;10.83;;
12369;SDS011;6249;52.128;9.986;2023-04-15T10:19:12;14.90;;;9.07;;
12369;SDS011;6249;52.128;9.986;2023-04-15T10:22:35;16.57;;;10.50;;
12369;SDS011;6249;52.128;9.986;2023-04-15T10:25:59;18.37;;;11.57;;
12369;SDS011;6249;52.128;9.986;2023-04-15T10:29:20;20.63;;;12.67;;
12369;SDS011;6249;52.128;9.986;2023-04-15T10:32:42;26.40;;;15.87;;
12369;SDS011;6249;52.128;9.986;2023-04-15T10:36:04;32.90;;;15.10;;
12369;SDS011;6249;52.128;9.986;2023-04-15T10:43:01;23.90;;;14.33;;
12369;SDS011;6249;52.128;9.986;2023-04-15T10:46:23;27.67;;;13.80;;
12369;SDS011;6249;52.128;9.986;2023-04-15T10:50:00;26.83;;;16.10;;
12369;SDS011;6249;52.128;9.986;2023-04-15T10:53:29;35.37;;;17.67;;
12369;SDS011;6249;52.128;9.986;2023-04-15T10:56:51;31.30;;;17.33;;
12369;SDS011;6249;52.128;9.986;2023-04-15T11:00:29;29.87;;;17.80;;
12369;SDS011;6249;52.128;9.986;2023-04-15T11:03:51;40.70;;;17.67;;
12369;SDS011;6249;52.128;9.986;2023-04-15T11:07:14;35.00;;;19.80;;
12369;SDS011;6249;52.128;9.986;2023-04-15T11:13:58;33.50;;;19.57;;
12369;SDS011;6249;52.128;9.986;2023-04-15T11:17:27;41.43;;;20.53;;
12369;SDS011;6249;52.128;9.986;2023-04-15T11:24:22;39.50;;;20.47;;
12369;SDS011;6249;52.128;9.986;2023-04-15T11:27:46;41.03;;;18.93;;
12369;SDS011;6249;52.128;9.986;2023-04-15T11:31:15;44.30;;;20.43;;
12369;SDS011;6249;52.128;9.986;2023-04-15T11:34:41;43.27;;;20.00;;
12369;SDS011;6249;52.128;9.986;2023-04-15T11:38:08;41.23;;;19.63;;
12369;SDS011;6249;52.128;9.986;2023-04-15T11:41:31;45.13;;;21.33;;
12369;SDS011;6249;52.128;9.986;2023-04-15T11:45:04;45.20;;;22.10;;
12369;SDS011;6249;52.128;9.986;2023-04-15T11:48:35;47.73;;;20.70;;
12369;SDS011;6249;52.128;9.986;2023-04-15T11:51:55;50.53;;;21.40;;
12369;SDS011;6249;52.128;9.986;2023-04-15T11:55:19;51.67;;;22.13;;
12369;SDS011;6249;52.128;9.986;2023-04-15T11:58:42;50.33;;;21.70;;
12369;SDS011;6249;52.128;9.986;2023-04-15T12:02:11;59.53;;;25.50;;
12369;SDS011;6249;52.128;9.986;2023-04-15T12:05:33;57.17;;;26.67;;
12369;SDS011;6249;52.128;9.986;2023-04-15T12:09:00;67.30;;;30.10;;
12369;SDS011;6249;52.128;9.986;2023-04-15T12:12:32;74.13;;;33.17;;
12369;SDS011;6249;52.128;9.986;2023-04-15T12:15:54;80.93;;;34.43;;
12369;SDS011;6249;52.128;9.986;2023-04-15T12:19:16;82.80;;;36.87;;
12369;SDS011;6249;52.128;9.986;2023-04-15T12:22:41;75.10;;;34.90;;
12369;SDS011;6249;52.128;9.986;2023-04-15T12:26:05;78.27;;;33.67;;
12369;SDS011;6249;52.128;9.986;2023-04-15T12:29:27;78.47;;;32.77;;
12369;SDS011;6249;52.128;9.986;2023-04-15T12:32:48;81.47;;;33.53;;
12369;SDS011;6249;52.128;9.986;2023-04-15T12:36:11;83.20;;;34.27;;
12369;SDS011;6249;52.128;9.986;2023-04-15T12:39:37;66.23;;;30.37;;
12369;SDS011;6249;52.128;9.986;2023-04-15T12:42:58;74.00;;;34.93;;
12369;SDS011;6249;52.128;9.986;2023-04-15T12:46:19;82.33;;;35.80;;
12369;SDS011;6249;52.128;9.986;2023-04-15T12:49:42;93.20;;;37.40;;
12369;SDS011;6249;52.128;9.986;2023-04-15T12:53:03;73.40;;;33.30;;
12369;SDS011;6249;52.128;9.986;2023-04-15T12:56:23;92.37;;;36.47;;
12369;SDS011;6249;52.128;9.986;2023-04-15T12:59:46;89.97;;;36.40;;
12369;SDS011;6249;52.128;9.986;2023-04-15T13:03:12;89.90;;;35.20;;
12369;SDS011;6249;52.128;9.986;2023-04-15T13:06:39;93.90;;;38.40;;
12369;SDS011;6249;52.128;9.986;2023-04-15T13:10:02;84.80;;;37.57;;
12369;SDS011;6249;52.128;9.986;2023-04-15T13:13:28;86.00;;;37.57;;
12369;SDS011;6249;52.128;9.986;2023-04-15T13:16:51;101.00;;;38.90;;
12369;SDS011;6249;52.128;9.986;2023-04-15T13:20:12;94.53;;;37.63;;
12369;SDS011;6249;52.128;9.986;2023-04-15T13:23:35;103.53;;;41.30;;
12369;SDS011;6249;52.128;9.986;2023-04-15T13:26:56;81.03;;;36.80;;
12369;SDS011;6249;52.128;9.986;2023-04-15T13:30:18;93.77;;;39.90;;
12369;SDS011;6249;52.128;9.986;2023-04-15T13:33:41;85.90;;;37.30;;
12369;SDS011;6249;52.128;9.986;2023-04-15T13:37:05;82.57;;;37.53;;
12369;SDS011;6249;52.128;9.986;2023-04-15T13:40:26;87.83;;;38.30;;
12369;SDS011;6249;52.128;9.986;2023-04-15T13:43:47;83.77;;;37.90;;
12369;SDS011;6249;52.128;9.986;2023-04-15T13:47:08;73.60;;;34.47;;
12369;SDS011;6249;52.128;9.986;2023-04-15T13:50:32;80.20;;;36.47;;
12369;SDS011;6249;52.128;9.986;2023-04-15T13:53:52;81.97;;;35.53;;
12369;SDS011;6249;52.128;9.986;2023-04-15T13:57:13;74.40;;;34.30;;
12369;SDS011;6249;52.128;9.986;2023-04-15T14:00:36;64.53;;;32.30;;
12369;SDS011;6249;52.128;9.986;2023-04-15T14:03:57;66.03;;;31.00;;
12369;SDS011;6249;52.128;9.986;2023-04-15T14:07:17;70.83;;;33.47;;
12369;SDS011;6249;52.128;9.986;2023-04-15T14:10:38;66.17;;;32.30;;
12369;SDS011;6249;52.128;9.986;2023-04-15T14:13:58;61.33;;;32.60;;
12369;SDS011;6249;52.128;9.986;2023-04-15T14:17:24;53.40;;;27.40;;
12369;SDS011;6249;52.128;9.986;2023-04-15T14:20:45;59.50;;;32.03;;
12369;SDS011;6249;52.128;9.986;2023-04-15T14:24:10;58.87;;;30.80;;
12369;SDS011;6249;52.128;9.986;2023-04-15T14:27:33;56.87;;;29.20;;
12369;SDS011;6249;52.128;9.986;2023-04-15T14:30:53;59.70;;;30.97;;
12369;SDS011;6249;52.128;9.986;2023-04-15T14:34:15;53.53;;;29.03;;
12369;SDS011;6249;52.128;9.986;2023-04-15T14:37:41;51.97;;;29.03;;
12369;SDS011;6249;52.128;9.986;2023-04-15T14:41:06;50.50;;;27.37;;
12369;SDS011;6249;52.128;9.986;2023-04-15T14:44:27;54.47;;;29.30;;
12369;SDS011;6249;52.128;9.986;2023-04-15T14:47:48;57.17;;;27.47;;
12369;SDS011;6249;52.128;9.986;2023-04-15T14:51:12;57.30;;;29.90;;
12369;SDS011;6249;52.128;9.986;2023-04-15T14:54:35;45.50;;;26.30;;
12369;SDS011;6249;52.128;9.986;2023-04-15T14:57:56;47.50;;;26.47;;
12369;SDS011;6249;52.128;9.986;2023-04-15T15:01:16;46.40;;;26.73;;
12369;SDS011;6249;52.128;9.986;2023-04-15T15:04:37;44.20;;;25.63;;
12369;SDS011;6249;52.128;9.986;2023-04-15T15:08:01;47.93;;;26.33;;
12369;SDS011;6249;52.128;9.986;2023-04-15T15:11:22;45.27;;;26.03;;
12369;SDS011;6249;52.128;9.986;2023-04-15T15:14:46;50.97;;;30.30;;
12369;SDS011;6249;52.128;9.986;2023-04-15T15:18:08;53.17;;;29.07;;
12369;SDS011;6249;52.128;9.986;2023-04-15T15:21:29;50.23;;;27.63;;
12369;SDS011;6249;52.128;9.986;2023-04-15T15:24:50;45.07;;;25.30;;
12369;SDS011;6249;52.128;9.986;2023-04-15T15:28:10;44.50;;;27.03;;
12369;SDS011;6249;52.128;9.986;2023-04-15T15:31:34;40.17;;;25.60;;
12369;SDS011;6249;52.128;9.986;2023-04-15T15:34:54;40.80;;;25.90;;
12369;SDS011;6249;52.128;9.986;2023-04-15T15:38:17;47.73;;;26.97;;
12369;SDS011;6249;52.128;9.986;2023-04-15T15:41:38;44.07;;;25.40;;
12369;SDS011;6249;52.128;9.986;2023-04-15T15:45:03;52.00;;;29.17;;
12369;SDS011;6249;52.128;9.986;2023-04-15T15:48:26;42.63;;;25.13;;
12369;SDS011;6249;52.128;9.986;2023-04-15T15:51:49;47.00;;;26.63;;
12369;SDS011;6249;52.128;9.986;2023-04-15T15:55:09;44.27;;;25.90;;
12369;SDS011;6249;52.128;9.986;2023-04-15T15:58:32;47.43;;;26.53;;
12369;SDS011;6249;52.128;9.986;2023-04-15T16:01:55;43.50;;;25.40;;
12369;SDS011;6249;52.128;9.986;2023-04-15T16:05:16;40.10;;;24.50;;
12369;SDS011;6249;52.128;9.986;2023-04-15T16:08:36;39.00;;;24.57;;
12369;SDS011;6249;52.128;9.986;2023-04-15T16:12:00;48.33;;;27.10;;
12369;SDS011;6249;52.128;9.986;2023-04-15T16:15:23;42.50;;;26.47;;
12369;SDS011;6249;52.128;9.986;2023-04-15T16:18:45;47.93;;;27.10;;
12369;SDS011;6249;52.128;9.986;2023-04-15T16:22:05;51.40;;;27.43;;
12369;SDS011;6249;52.128;9.986;2023-04-15T16:25:26;41.63;;;25.60;;
12369;SDS011;6249;52.128;9.986;2023-04-15T16:28:46;47.63;;;27.80;;
12369;SDS011;6249;52.128;9.986;2023-04-15T16:32:07;51.33;;;30.33;;
12369;SDS011;6249;52.128;9.986;2023-04-15T16:35:30;52.80;;;30.20;;
12369;SDS011;6249;52.128;9.986;2023-04-15T16:38:51;64.40;;;33.83;;
12369;SDS011;6249;52.128;9.986;2023-04-15T16:42:12;58.47;;;36.23;;
12369;SDS011;6249;52.128;9.986;2023-04-15T16:45:35;62.30;;;35.03;;
12369;SDS011;6249;52.128;9.986;2023-04-15T16:48:56;60.87;;;35.07;;
12369;SDS011;6249;52.128;9.986;2023-04-15T16:52:18;65.27;;;35.10;;
12369;SDS011;6249;52.128;9.986;2023-04-15T16:55:39;67.73;;;34.97;;
12369;SDS011;6249;52.128;9.986;2023-04-15T16:59:00;69.37;;;36.47;;
12369;SDS011;6249;52.128;9.986;2023-04-15T17:02:23;69.07;;;36.63;;
12369;SDS011;6249;52.128;9.986;2023-04-15T17:05:46;72.73;;;40.07;;
12369;SDS011;6249;52.128;9.986;2023-04-15T17:09:07;73.40;;;38.80;;
12369;SDS011;6249;52.128;9.986;2023-04-15T17:12:28;68.00;;;39.40;;
12369;SDS011;6249;52.128;9.986;2023-04-15T17:15:49;70.20;;;38.37;;
12369;SDS011;6249;52.128;9.986;2023-04-15T17:19:11;72.77;;;36.80;;
12369;SDS011;6249;52.128;9.986;2023-04-15T17:22:32;71.83;;;37.40;;
12369;SDS011;6249;52.128;9.986;2023-04-15T17:25:53;69.03;;;37.73;;
12369;SDS011;6249;52.128;9.986;2023-04-15T17:29:13;66.37;;;34.70;;
12369;SDS011;6249;52.128;9.986;2023-04-15T17:32:34;58.37;;;34.73;;
12369;SDS011;6249;52.128;9.986;2023-04-15T17:35:56;62.80;;;33.97;;
12369;SDS011;6249;52.128;9.986;2023-04-15T17:39:17;57.43;;;32.20;;
12369;SDS011;6249;52.128;9.986;2023-04-15T17:42:40;53.33;;;30.63;;
12369;SDS011;6249;52.128;9.986;2023-04-15T17:46:04;45.10;;;26.57;;
12369;SDS011;6249;52.128;9.986;2023-04-15T17:49:27;40.57;;;26.30;;
12369;SDS011;6249;52.128;9.986;2023-04-15T17:52:53;36.63;;;24.07;;
12369;SDS011;6249;52.128;9.986;2023-04-15T17:56:13;37.63;;;24.57;;
12369;SDS011;6249;52.128;9.986;2023-04-15T17:59:34;38.43;;;24.57;;
12369;SDS011;6249;52.128;9.986;2023-04-15T18:02:57;35.97;;;23.40;;
12369;SDS011;6249;52.128;9.986;2023-04-15T18:06:17;34.07;;;22.30;;
12369;SDS011;6249;52.128;9.986;2023-04-15T18:09:40;36.70;;;23.10;;
12369;SDS011;6249;52.128;9.986;2023-04-15T18:13:03;31.60;;;21.27;;
12369;SDS011;6249;52.128;9.986;2023-04-15T18:16:24;31.70;;;21.50;;
12369;SDS011;6249;52.128;9.986;2023-04-15T18:19:48;30.60;;;20.27;;
12369;SDS011;6249;52.128;9.986;2023-04-15T18:23:08;29.70;;;20.07;;
12369;SDS011;6249;52.128;9.986;2023-04-15T18:26:29;32.00;;;22.03;;
12369;SDS011;6249;52.128;9.986;2023-04-15T18:29:53;30.60;;;20.50;;
12369;SDS011;6249;52.128;9.986;2023-04-15T18:33:14;27.67;;;18.53;;
12369;SDS011;6249;52.128;9.986;2023-04-15T18:36:35;41.20;;;20.00;;
12369;SDS011;6249;52.128;9.986;2023-04-15T18:39:55;32.20;;;19.97;;
12369;SDS011;6249;52.128;9.986;2023-04-15T18:43:21;28.07;;;20.20;;
12369;SDS011;6249;52.128;9.986;2023-04-15T18:46:41;33.67;;;20.33;;
12369;SDS011;6249;52.128;9.986;2023-04-15T18:50:02;30.47;;;20.97;;
12369;SDS011;6249;52.128;9.986;2023-04-15T18:53:25;42.33;;;21.13;;
12369;SDS011;6249;52.128;9.986;2023-04-15T18:56:48;28.87;;;19.47;;
12369;SDS011;6249;52.128;9.986;2023-04-15T19:00:11;29.50;;;20.50;;
12369;SDS011;6249;52.128;9.986;2023-04-15T19:03:33;31.10;;;21.90;;
12369;SDS011;6249;52.128;9.986;2023-04-15T19:06:53;29.23;;;20.90;;
12369;SDS011;6249;52.128;9.986;2023-04-15T19:10:17;30.10;;;20.40;;
12369;SDS011;6249;52.128;9.986;2023-04-15T19:13:38;32.60;;;17.90;;
12369;SDS011;6249;52.128;9.986;2023-04-15T19:17:01;28.20;;;19.87;;
12369;SDS011;6249;52.128;9.986;2023-04-15T19:20:21;27.87;;;19.37;;
12369;SDS011;6249;52.128;9.986;2023-04-15T19:23:44;30.20;;;19.13;;
12369;SDS011;6249;52.128;9.986;2023-04-15T19:27:08;40.33;;;20.70;;
12369;SDS011;6249;52.128;9.986;2023-04-15T19:30:32;27.50;;;19.23;;
12369;SDS011;6249;52.128;9.986;2023-04-15T19:33:55;28.47;;;18.77;;
12369;SDS011;6249;52.128;9.986;2023-04-15T19:37:16;33.03;;;20.37;;
12369;SDS011;6249;52.128;9.986;2023-04-15T19:40:37;28.10;;;20.20;;
12369;SDS011;6249;52.128;9.986;2023-04-15T19:43:57;29.77;;;20.23;;
12369;SDS011;6249;52.128;9.986;2023-04-15T19:47:18;29.37;;;19.97;;
12369;SDS011;6249;52.128;9.986;2023-04-15T19:50:39;29.60;;;20.40;;
12369;SDS011;6249;52.128;9.986;2023-04-15T19:54:00;35.23;;;22.20;;
12369;SDS011;6249;52.128;9.986;2023-04-15T19:57:22;32.33;;;20.60;;
12369;SDS011;6249;52.128;9.986;2023-04-15T20:00:47;34.33;;;21.20;;
12369;SDS011;6249;52.128;9.986;2023-04-15T20:04:10;31.33;;;22.13;;
12369;SDS011;6249;52.128;9.986;2023-04-15T20:07:33;31.47;;;21.40;;
12369;SDS011;6249;52.128;9.986;2023-04-15T20:10:55;32.13;;;21.57;;
12369;SDS011;6249;52.128;9.986;2023-04-15T20:14:20;34.90;;;22.63;;
12369;SDS011;6249;52.128;9.986;2023-04-15T20:17:44;41.40;;;23.70;;